Terminal Aerodrome Forecast
Issued by NWS Tuscon, AZ

Home | Current Version | Previous Version | Text Only | Print | Product List | Glossary On
Versions: 1 2 3 4 5 6 7 8 9 10 11 12 13 14 15 16
224
FTUS45 KTWC 270520
TAFTUS
TAF
KTUS 270520Z 2706/2806 12020G30KT P6SM SCT080 BKN150
     FM271200 12018KT P6SM FEW040 SCT060 BKN130 PROB30 2715/2720
      -SHRA
     FM272000 13015KT P6SM VCTS SCT060CB BKN150
     FM280000 14010KT P6SM VCSH BKN060 BKN120=

USA.gov is the U.S. government's official web portal to all federal, state and local government web resources and services.